ExpreSS Skopelitis — SW3130 — position and weather

sailwx.info

Track history (hours):
 
Tides and Currents Weather Stations Pressure Air Temp Water Temp Dewpoint Dewpoint Depression Visibility Wind Speed Wind Dir Waves Ship Positions

ExpreSS Skopelitis

Last reported at 2015-Aug-30 05:33 UTC. Time now 2015-Aug-30 05:59 UTC.
Position N 36°50' E 025°45'.

Length 45 m; draft 2.4 m.

Type: Passenger vessel. MMSI: 237029400.

Date/timePositionNaut miles runAvg speedWind from/ knotsBaromVisibWave heightAir tempDewpointWater temp
2015-Aug-30 05:33N 36°50' E 025°45'4 0.4
2015-Aug-29 17:24N 36°51' E 025°51'6 6.1
2015-Aug-29 16:24N 36°56' E 025°55'11 8.5
2015-Aug-29 15:07N 37°05' E 025°47'711.4
2015-Aug-29 14:33N 36°60' E 025°42'9 8.4
2015-Aug-29 13:29N 36°54' E 025°33'13 6.6
2015-Aug-29 11:33N 37°02' E 025°21'4 4.3
2015-Aug-29 10:33N 37°06' E 025°22'0 0.0
2015-Aug-29 09:33N 37°06' E 025°22'8 7.9
2015-Aug-29 08:32N 36°58' E 025°23'9 8.5
2015-Aug-29 07:31N 36°52' E 025°31'6 6.2
2015-Aug-29 06:33N 36°56' E 025°37'1312.6
2015-Aug-29 05:33N 37°05' E 025°47'9 8.6
2015-Aug-29 04:33N 36°59' E 025°54'7 6.6
2015-Aug-29 03:30N 36°52' E 025°53'3 0.3
2015-Aug-28 15:04N 36°50' E 025°51'611.6
2015-Aug-28 14:31N 36°53' E 025°44'8 8.2
2015-Aug-28 13:29N 36°55' E 025°33'12 6.4
2015-Aug-28 11:33N 37°02' E 025°21'5 4.6
2015-Aug-28 10:33N 37°06' E 025°22'0 0.0
2015-Aug-28 09:33N 37°06' E 025°22'0 0.0
2015-Aug-28 08:33N 37°06' E 025°22'4 4.4
2015-Aug-28 07:33N 37°02' E 025°21'12 9.8
2015-Aug-28 06:17N 36°52' E 025°30'5 7.5
2015-Aug-28 05:33N 36°56' E 025°35'9 9.3
2015-Aug-28 04:33N 36°52' E 025°46'1 0.1
2015-Aug-27 14:33N 36°51' E 025°47'10 9.7
2015-Aug-27 13:29N 36°55' E 025°35'13 6.6
2015-Aug-27 11:33N 37°02' E 025°21'5 4.9
2015-Aug-27 10:33N 37°06' E 025°22'0 0.0
2015-Aug-27 09:33N 37°06' E 025°22'0 0.0
2015-Aug-27 08:33N 37°06' E 025°22'3 3.4
2015-Aug-27 07:33N 37°03' E 025°20'1410.3
2015-Aug-27 06:12N 36°52' E 025°30'5 7.8
2015-Aug-27 05:31N 36°56' E 025°36'10 9.7
2015-Aug-27 04:28N 36°51' E 025°47'3 0.2
2015-Aug-26 17:27N 36°50' E 025°50'7 7.8
2015-Aug-26 16:32N 36°54' E 025°58'1412.3
2015-Aug-26 15:26N 37°06' E 025°48'6 7.2
2015-Aug-26 14:33N 37°00' E 025°43'9 8.7
2015-Aug-26 13:28N 36°55' E 025°34'12 6.4
2015-Aug-26 11:33N 37°02' E 025°21'5 4.8
2015-Aug-26 10:33N 37°06' E 025°22'0 0.0
2015-Aug-26 09:33N 37°06' E 025°22'7 6.9
2015-Aug-26 08:33N 36°59' E 025°22'9 6.7
2015-Aug-26 07:14N 36°53' E 025°30'6 8.3
2015-Aug-26 06:33N 36°56' E 025°37'14 6.9
2015-Aug-26 04:31N 36°58' E 025°54'6 6.1
2015-Aug-26 03:32N 36°52' E 025°54'6 0.5
2015-Aug-25 14:31N 36°51' E 025°46'10 9.8
2015-Aug-25 13:33N 36°56' E 025°36'13 6.6
2015-Aug-25 11:33N 37°02' E 025°21'5 4.9
2015-Aug-25 10:33N 37°06' E 025°22'0 0.0
2015-Aug-25 09:33N 37°06' E 025°22'0 0.0
2015-Aug-25 08:33N 37°06' E 025°22'3 3.3
2015-Aug-25 07:33N 37°03' E 025°20'14 7.1
2015-Aug-25 05:32N 36°56' E 025°35'10 9.4
2015-Aug-25 04:29N 36°52' E 025°47'5 0.4
2015-Aug-24 17:31N 36°53' E 025°53'5 4.6
2015-Aug-24 16:31N 36°57' E 025°54'9 6.3
2015-Aug-24 15:03N 37°03' E 025°45'610.5
2015-Aug-24 14:30N 36°59' E 025°40'8 8.8
2015-Aug-24 13:33N 36°54' E 025°32'14 6.8
2015-Aug-24 11:33N 37°04' E 025°20'3 3.1
2015-Aug-24 10:33N 37°06' E 025°22'0 0.0
2015-Aug-24 09:33N 37°06' E 025°22'15 6.6
2015-Aug-24 07:20N 36°53' E 025°30'7 8.8
2015-Aug-24 06:33N 36°56' E 025°38'13 6.6
2015-Aug-24 04:33N 36°59' E 025°54'7 6.3
2015-Aug-24 03:31N 36°52' E 025°53'3 0.2
2015-Aug-23 13:30N 36°50' E 025°51'1111.3
2015-Aug-23 12:33N 36°51' E 025°37'1211.6
2015-Aug-23 11:32N 36°48' E 025°23'19 8.0
2015-Aug-23 09:10N 36°30' E 025°21'711.8
2015-Aug-23 08:33N 36°23' E 025°26'8 7.2
2015-Aug-23 07:25N 36°31' E 025°24'1113.0
2015-Aug-23 06:33N 36°40' E 025°34'1313.1
2015-Aug-23 05:33N 36°50' E 025°45'5 0.4
2015-Aug-22 17:33N 36°51' E 025°51'6 5.7
2015-Aug-22 16:29N 36°57' E 025°55'10 8.1
2015-Aug-22 15:14N 37°05' E 025°47'811.0
2015-Aug-22 14:31N 36°59' E 025°41'10 9.2
2015-Aug-22 13:24N 36°53' E 025°30'12 6.6
2015-Aug-22 11:33N 37°02' E 025°21'4 4.3
2015-Aug-22 10:33N 37°06' E 025°22'2 1.5
2015-Aug-22 09:33N 37°06' E 025°21'15 6.8
2015-Aug-22 07:23N 36°53' E 025°30'7 8.5
2015-Aug-22 06:33N 36°56' E 025°38'12 8.6
2015-Aug-22 05:10N 37°04' E 025°49'711.7
2015-Aug-22 04:32N 36°58' E 025°55'6 5.7
2015-Aug-22 03:33N 36°52' E 025°53'7 0.5
2015-Aug-21 14:33N 36°52' E 025°45'10 9.0
2015-Aug-21 13:24N 36°54' E 025°33'11 6.2
2015-Aug-21 11:33N 37°01' E 025°21'5 5.5
2015-Aug-21 10:33N 37°06' E 025°22'0 0.0
2015-Aug-21 09:33N 37°06' E 025°22'0 0.0
2015-Aug-21 08:33N 37°06' E 025°22'4 4.0
2015-Aug-21 07:33N 37°03' E 025°21'1310.0
2015-Aug-21 06:16N 36°52' E 025°30'5 7.2
2015-Aug-21 05:32N 36°55' E 025°35'9 9.3
2015-Aug-21 04:33N 36°52' E 025°46'1 0.1
2015-Aug-20 14:33N 36°51' E 025°47'10 9.1
2015-Aug-20 13:30N 36°56' E 025°36'7 7.7
2015-Aug-20 12:33N 36°52' E 025°28'1111.1
2015-Aug-20 11:33N 37°01' E 025°21'5 5.1
2015-Aug-20 10:33N 37°06' E 025°22'0 0.0
2015-Aug-20 09:33N 37°06' E 025°22'0 0.0
2015-Aug-20 08:33N 37°06' E 025°22'4 4.0
2015-Aug-20 07:33N 37°03' E 025°21'1211.9
2015-Aug-20 06:33N 36°52' E 025°29'  
Track history (hours):
 
Tides and Currents Weather Stations Pressure Air Temp Water Temp Dewpoint Dewpoint Depression Visibility Wind Speed Wind Dir Waves Ship Positions

ExpreSS Skopelitis

Last reported at 2015-Aug-30 05:33 UTC. Time now 2015-Aug-30 05:59 UTC.
Position N 36°50' E 025°45'.

Length 45 m; draft 2.4 m.

Type: Passenger vessel. MMSI: 237029400.

Date/timePositionNaut miles runAvg speedWind from/ knotsBaromVisibWave heightAir tempDewpointWater temp
2015-Aug-30 05:33N 36°50' E 025°45'4 0.4
2015-Aug-29 17:24N 36°51' E 025°51'6 6.1
2015-Aug-29 16:24N 36°56' E 025°55'11 8.5
2015-Aug-29 15:07N 37°05' E 025°47'711.4
2015-Aug-29 14:33N 36°60' E 025°42'9 8.4
2015-Aug-29 13:29N 36°54' E 025°33'13 6.6
2015-Aug-29 11:33N 37°02' E 025°21'4 4.3
2015-Aug-29 10:33N 37°06' E 025°22'0 0.0
2015-Aug-29 09:33N 37°06' E 025°22'8 7.9
2015-Aug-29 08:32N 36°58' E 025°23'9 8.5
2015-Aug-29 07:31N 36°52' E 025°31'6 6.2
2015-Aug-29 06:33N 36°56' E 025°37'1312.6
2015-Aug-29 05:33N 37°05' E 025°47'9 8.6
2015-Aug-29 04:33N 36°59' E 025°54'7 6.6
2015-Aug-29 03:30N 36°52' E 025°53'3 0.3
2015-Aug-28 15:04N 36°50' E 025°51'611.6
2015-Aug-28 14:31N 36°53' E 025°44'8 8.2
2015-Aug-28 13:29N 36°55' E 025°33'12 6.4
2015-Aug-28 11:33N 37°02' E 025°21'5 4.6
2015-Aug-28 10:33N 37°06' E 025°22'0 0.0
2015-Aug-28 09:33N 37°06' E 025°22'0 0.0
2015-Aug-28 08:33N 37°06' E 025°22'4 4.4
2015-Aug-28 07:33N 37°02' E 025°21'12 9.8
2015-Aug-28 06:17N 36°52' E 025°30'5 7.5
2015-Aug-28 05:33N 36°56' E 025°35'9 9.3
2015-Aug-28 04:33N 36°52' E 025°46'1 0.1
2015-Aug-27 14:33N 36°51' E 025°47'10 9.7
2015-Aug-27 13:29N 36°55' E 025°35'13 6.6
2015-Aug-27 11:33N 37°02' E 025°21'5 4.9
2015-Aug-27 10:33N 37°06' E 025°22'0 0.0
2015-Aug-27 09:33N 37°06' E 025°22'0 0.0
2015-Aug-27 08:33N 37°06' E 025°22'3 3.4
2015-Aug-27 07:33N 37°03' E 025°20'1410.3
2015-Aug-27 06:12N 36°52' E 025°30'5 7.8
2015-Aug-27 05:31N 36°56' E 025°36'10 9.7
2015-Aug-27 04:28N 36°51' E 025°47'3 0.2
2015-Aug-26 17:27N 36°50' E 025°50'7 7.8
2015-Aug-26 16:32N 36°54' E 025°58'1412.3
2015-Aug-26 15:26N 37°06' E 025°48'6 7.2
2015-Aug-26 14:33N 37°00' E 025°43'9 8.7
2015-Aug-26 13:28N 36°55' E 025°34'12 6.4
2015-Aug-26 11:33N 37°02' E 025°21'5 4.8
2015-Aug-26 10:33N 37°06' E 025°22'0 0.0
2015-Aug-26 09:33N 37°06' E 025°22'7 6.9
2015-Aug-26 08:33N 36°59' E 025°22'9 6.7
2015-Aug-26 07:14N 36°53' E 025°30'6 8.3
2015-Aug-26 06:33N 36°56' E 025°37'14 6.9
2015-Aug-26 04:31N 36°58' E 025°54'6 6.1
2015-Aug-26 03:32N 36°52' E 025°54'6 0.5
2015-Aug-25 14:31N 36°51' E 025°46'10 9.8
2015-Aug-25 13:33N 36°56' E 025°36'13 6.6
2015-Aug-25 11:33N 37°02' E 025°21'5 4.9
2015-Aug-25 10:33N 37°06' E 025°22'0 0.0
2015-Aug-25 09:33N 37°06' E 025°22'0 0.0
2015-Aug-25 08:33N 37°06' E 025°22'3 3.3
2015-Aug-25 07:33N 37°03' E 025°20'14 7.1
2015-Aug-25 05:32N 36°56' E 025°35'10 9.4
2015-Aug-25 04:29N 36°52' E 025°47'5 0.4
2015-Aug-24 17:31N 36°53' E 025°53'5 4.6
2015-Aug-24 16:31N 36°57' E 025°54'9 6.3
2015-Aug-24 15:03N 37°03' E 025°45'610.5
2015-Aug-24 14:30N 36°59' E 025°40'8 8.8
2015-Aug-24 13:33N 36°54' E 025°32'14 6.8
2015-Aug-24 11:33N 37°04' E 025°20'3 3.1
2015-Aug-24 10:33N 37°06' E 025°22'0 0.0
2015-Aug-24 09:33N 37°06' E 025°22'15 6.6
2015-Aug-24 07:20N 36°53' E 025°30'7 8.8
2015-Aug-24 06:33N 36°56' E 025°38'13 6.6
2015-Aug-24 04:33N 36°59' E 025°54'7 6.3
2015-Aug-24 03:31N 36°52' E 025°53'3 0.2
2015-Aug-23 13:30N 36°50' E 025°51'1111.3
2015-Aug-23 12:33N 36°51' E 025°37'1211.6
2015-Aug-23 11:32N 36°48' E 025°23'19 8.0
2015-Aug-23 09:10N 36°30' E 025°21'711.8
2015-Aug-23 08:33N 36°23' E 025°26'8 7.2
2015-Aug-23 07:25N 36°31' E 025°24'1113.0
2015-Aug-23 06:33N 36°40' E 025°34'1313.1
2015-Aug-23 05:33N 36°50' E 025°45'5 0.4
2015-Aug-22 17:33N 36°51' E 025°51'6 5.7
2015-Aug-22 16:29N 36°57' E 025°55'10 8.1
2015-Aug-22 15:14N 37°05' E 025°47'811.0
2015-Aug-22 14:31N 36°59' E 025°41'10 9.2
2015-Aug-22 13:24N 36°53' E 025°30'12 6.6
2015-Aug-22 11:33N 37°02' E 025°21'4 4.3
2015-Aug-22 10:33N 37°06' E 025°22'2 1.5
2015-Aug-22 09:33N 37°06' E 025°21'15 6.8
2015-Aug-22 07:23N 36°53' E 025°30'7 8.5
2015-Aug-22 06:33N 36°56' E 025°38'12 8.6
2015-Aug-22 05:10N 37°04' E 025°49'711.7
2015-Aug-22 04:32N 36°58' E 025°55'6 5.7
2015-Aug-22 03:33N 36°52' E 025°53'7 0.5
2015-Aug-21 14:33N 36°52' E 025°45'10 9.0
2015-Aug-21 13:24N 36°54' E 025°33'11 6.2
2015-Aug-21 11:33N 37°01' E 025°21'5 5.5
2015-Aug-21 10:33N 37°06' E 025°22'0 0.0
2015-Aug-21 09:33N 37°06' E 025°22'0 0.0
2015-Aug-21 08:33N 37°06' E 025°22'4 4.0
2015-Aug-21 07:33N 37°03' E 025°21'1310.0
2015-Aug-21 06:16N 36°52' E 025°30'5 7.2
2015-Aug-21 05:32N 36°55' E 025°35'9 9.3
2015-Aug-21 04:33N 36°52' E 025°46'1 0.1
2015-Aug-20 14:33N 36°51' E 025°47'10 9.1
2015-Aug-20 13:30N 36°56' E 025°36'7 7.7
2015-Aug-20 12:33N 36°52' E 025°28'1111.1
2015-Aug-20 11:33N 37°01' E 025°21'5 5.1
2015-Aug-20 10:33N 37°06' E 025°22'0 0.0
2015-Aug-20 09:33N 37°06' E 025°22'0 0.0
2015-Aug-20 08:33N 37°06' E 025°22'4 4.0
2015-Aug-20 07:33N 37°03' E 025°21'1211.9
2015-Aug-20 06:33N 36°52' E 025°29'  

Dump ship's entire track history